Time;durP1;ratioP1;P1;durP2;ratioP2;P2;SDS_P1;SDS_P2;PMS_P1;PMS_P2;Temp;Humidity;BMP_temperature;BMP_pressure;BME280_temperature;BME280_humidity;BME280_pressure;Samples;Min_cycle;Max_cycle;Signal;HPM_P1;HPM_P2
2022/01/18 00:01:21;;;;;;;3.42;1.33;;;2.10;90.80;;;-0.07;62.34;101052.66;10374516;28;96624;-76
2022/01/18 00:06:25;;;;;;;4.30;1.03;;;2.00;90.80;;;-0.11;63.18;101061.59;10369232;28;96506;-77
2022/01/18 00:11:34;;;;;;;7.07;1.10;;;1.90;90.80;;;-0.02;62.06;101079.41;10368955;28;96521;-76
2022/01/18 00:16:49;;;;;;;5.30;1.10;;;2.00;90.70;;;-0.13;63.01;101089.56;10413342;27;97741;-77
2022/01/18 00:27:12;;;;;;;17.93;4.93;;;1.90;91.50;;;-0.44;64.35;101098.09;10402587;27;96535;-77
2022/01/18 00:32:28;;;;;;;8.60;2.80;;;1.70;91.90;;;-0.69;64.90;101111.50;10401837;27;96650;-76
2022/01/18 00:37:37;;;;;;;10.07;1.90;;;1.50;92.70;;;-0.86;65.98;101126.19;10423266;27;96859;-76
2022/01/18 00:42:39;;;;;;;5.83;1.70;;;1.40;92.80;;;-0.84;65.78;101134.81;10405581;27;96549;-77
2022/01/18 00:47:43;;;;;;;6.13;1.37;;;1.30;92.80;;;-0.87;65.57;101145.38;10426206;27;96652;-77
2022/01/18 00:52:50;;;;;;;7.03;2.10;;;1.30;93.20;;;-0.91;66.00;101154.25;10453985;27;98072;-76
2022/01/18 00:57:53;;;;;;;5.60;1.47;;;1.30;93.30;;;-0.93;66.00;101158.69;10406705;27;96738;-76
2022/01/18 01:02:56;;;;;;;6.73;1.40;;;1.20;93.60;;;-0.89;66.39;101156.81;10434998;27;97467;-76
2022/01/18 01:08:00;;;;;;;11.57;2.77;;;1.20;93.80;;;-0.79;65.98;101165.03;10422413;27;97075;-76
2022/01/18 01:13:06;;;;;;;8.57;2.13;;;1.20;93.80;;;-0.76;65.88;101172.75;10418788;28;96910;-77
2022/01/18 01:18:33;;;;;;;7.40;1.33;;;1.30;94.10;;;-0.88;65.75;101175.00;10385633;27;96794;-76
2022/01/18 01:34:40;;;;;;;3.33;1.23;;;1.10;94.10;;;-0.86;66.51;101167.09;10419248;28;96615;-76
2022/01/18 01:45:10;;;;;;;4.40;0.97;;;1.20;94.10;;;-0.60;65.76;101190.22;10433923;27;97607;-76
2022/01/18 01:50:18;;;;;;;5.80;1.57;;;1.30;94.10;;;-0.55;65.50;101198.66;10418136;27;96664;-76
2022/01/18 01:55:23;;;;;;;8.53;2.10;;;1.40;93.90;;;-0.59;65.61;101202.34;10396230;27;97174;-77
2022/01/18 02:00:26;;;;;;;5.50;1.37;;;1.40;94.00;;;-0.60;65.73;101205.88;10415691;27;97082;-77
2022/01/18 02:05:29;;;;;;;2.70;1.00;;;1.40;94.00;;;-0.65;66.00;101207.00;10398382;28;96779;-76
2022/01/18 02:10:37;;;;;;;5.00;1.63;;;1.30;94.20;;;-0.70;66.28;101215.06;10426529;27;96538;-77
2022/01/18 02:16:14;;;;;;;1.73;0.93;;;1.30;94.20;;;-0.71;66.73;101221.19;10433121;27;96758;-77
2022/01/18 02:26:31;;;;;;;5.70;1.00;;;1.20;94.60;;;-0.91;67.07;101224.69;10422088;27;96564;-77
2022/01/18 02:31:35;;;;;;;3.20;1.13;;;1.20;94.80;;;-0.97;67.83;101232.81;10424247;27;96602;-76
2022/01/18 02:36:38;;;;;;;6.87;2.03;;;1.10;95.00;;;-1.01;68.05;101222.59;10372079;28;96597;-76
2022/01/18 02:41:43;;;;;;;5.00;1.63;;;1.00;95.30;;;-0.99;68.27;101225.97;10429720;27;96850;-76
2022/01/18 02:46:46;;;;;;;4.83;1.50;;;1.00;95.70;;;-0.96;68.52;101241.47;10386211;27;96586;-75
2022/01/18 02:51:49;;;;;;;6.37;1.30;;;1.00;95.90;;;-0.92;68.43;101241.28;10391342;28;96563;-76
2022/01/18 02:57:00;;;;;;;6.63;1.30;;;1.00;96.10;;;-0.90;68.24;101235.97;10430132;27;96472;-75
2022/01/18 03:07:46;;;;;;;6.27;1.43;;;1.10;96.40;;;-0.90;67.82;101260.34;10375069;28;96493;-76
2022/01/18 03:12:49;;;;;;;6.93;1.07;;;1.00;96.30;;;-0.87;68.10;101272.38;10417152;27;96739;-76
2022/01/18 03:17:52;;;;;;;4.70;1.43;;;1.10;96.30;;;-0.86;68.21;101274.91;10416025;28;98599;-76
2022/01/18 03:22:55;;;;;;;6.07;1.20;;;1.00;96.30;;;-0.85;68.15;101279.22;10422559;27;98130;-78
2022/01/18 03:28:05;;;;;;;5.83;1.23;;;1.10;96.40;;;-0.84;68.20;101291.38;10396677;28;96687;-78
2022/01/18 03:33:15;;;;;;;5.30;1.53;;;1.10;96.60;;;-0.89;68.77;101298.56;10429854;27;96908;-78
2022/01/18 03:38:20;;;;;;;5.53;1.00;;;1.10;96.70;;;-0.90;68.73;101312.53;10393846;27;96556;-78
2022/01/18 03:43:23;;;;;;;8.83;1.20;;;1.00;96.80;;;-0.86;68.71;101334.09;10418893;27;96671;-77
2022/01/18 03:48:34;;;;;;;9.43;1.67;;;1.00;96.90;;;-0.85;68.21;101336.63;10405382;28;97350;-75
2022/01/18 03:53:38;;;;;;;6.93;1.10;;;1.10;96.90;;;-0.83;68.58;101350.47;10428469;27;97614;-77
2022/01/18 03:58:41;;;;;;;4.40;1.30;;;1.10;97.00;;;-0.85;68.31;101336.63;10410056;28;96516;-77
2022/01/18 04:03:44;;;;;;;6.87;1.40;;;1.10;97.10;;;-0.91;68.74;101349.94;10369053;27;96572;-77
2022/01/18 04:08:46;;;;;;;4.17;1.20;;;1.00;97.20;;;-0.97;68.93;101358.03;10413412;27;97392;-77
2022/01/18 04:13:56;;;;;;;5.00;1.30;;;1.00;97.30;;;-1.03;69.20;101363.53;10415509;27;96664;-77
2022/01/18 04:19:22;;;;;;;5.30;1.40;;;0.90;97.70;;;-1.07;69.48;101367.19;10396117;28;96764;-77
2022/01/18 04:29:43;;;;;;;3.97;0.87;;;0.90;97.80;;;-1.07;69.37;101377.63;10413416;27;96437;-77
2022/01/18 04:34:46;;;;;;;4.53;1.30;;;0.90;97.80;;;-1.05;68.96;101386.22;10373653;27;96484;-77
2022/01/18 04:39:50;;;;;;;3.10;0.90;;;0.90;97.80;;;-1.10;68.87;101378.59;10414790;27;96678;-77
2022/01/18 04:50:15;;;;;;;6.13;1.43;;;0.80;97.70;;;-1.10;68.96;101398.63;10397144;28;96823;-77
2022/01/18 04:55:19;;;;;;;4.17;1.30;;;0.80;97.70;;;-1.06;68.80;101397.59;10413539;27;96545;-77
2022/01/18 05:00:26;;;;;;;5.23;1.23;;;0.90;97.70;;;-1.01;68.63;101390.41;10409217;28;96662;-77
2022/01/18 05:05:33;;;;;;;5.27;1.67;;;0.90;97.60;;;-0.95;68.46;101400.59;10430955;27;96614;-78
2022/01/18 05:10:36;;;;;;;5.27;1.20;;;1.00;97.60;;;-0.97;68.59;101405.00;10443206;27;96486;-78
2022/01/18 05:15:46;;;;;;;6.50;1.80;;;1.00;97.60;;;-0.97;68.81;101425.88;10391189;28;96502;-76
2022/01/18 05:26:11;;;;;;;3.57;1.10;;;0.90;98.00;;;-1.01;69.50;101445.22;10405239;27;96758;-76
2022/01/18 05:31:14;;;;;;;4.47;1.10;;;0.90;98.40;;;-1.06;69.73;101449.75;10402649;27;96580;-76
2022/01/18 05:36:17;;;;;;;6.80;1.80;;;0.90;98.50;;;-1.09;69.93;101455.94;10394942;27;96644;-76
2022/01/18 05:41:20;;;;;;;9.10;1.87;;;0.90;98.50;;;-1.10;70.19;101459.47;10427193;27;96565;-77
2022/01/18 05:46:26;;;;;;;3.87;1.27;;;0.80;98.80;;;-1.08;70.37;101454.19;10404830;28;96995;-77
2022/01/18 05:51:31;;;;;;;8.70;1.70;;;0.90;98.90;;;-1.08;70.81;101465.50;10419358;27;96422;-77
2022/01/18 05:56:36;;;;;;;6.50;1.77;;;0.90;99.30;;;-1.08;70.95;101460.28;10428317;27;96550;-76
2022/01/18 06:01:47;;;;;;;3.60;1.47;;;0.90;99.40;;;-1.11;71.80;101475.19;10419218;27;96493;-76
2022/01/18 06:06:53;;;;;;;4.70;1.40;;;0.80;99.90;;;-1.15;72.00;101478.81;10425775;27;96536;-76
2022/01/18 06:11:56;;;;;;;5.53;1.77;;;0.80;99.90;;;-1.18;72.22;101489.41;10421182;27;96719;-77
2022/01/18 06:16:58;;;;;;;7.20;2.00;;;0.70;99.90;;;-1.26;72.58;101499.25;10388371;27;96598;-77
2022/01/18 06:22:01;;;;;;;29.67;12.23;;;0.70;99.90;;;-1.39;73.05;101491.91;10424047;27;96582;-76
2022/01/18 06:27:05;;;;;;;13.37;3.80;;;0.60;99.90;;;-1.44;73.51;101498.22;10432526;27;96665;-77
2022/01/18 06:32:08;;;;;;;12.53;2.90;;;0.60;99.90;;;-1.50;74.14;101493.25;10413018;27;96689;-76
2022/01/18 06:37:11;;;;;;;10.17;3.03;;;0.50;99.90;;;-1.55;74.54;101490.00;10433146;27;96552;-77
2022/01/18 06:42:15;;;;;;;7.93;3.10;;;0.50;99.90;;;-1.53;75.08;101504.66;10421318;27;96516;-76
2022/01/18 06:47:18;;;;;;;14.63;2.73;;;0.50;99.90;;;-1.48;75.14;101518.38;10399805;28;96575;-77
2022/01/18 06:52:21;;;;;;;14.37;2.10;;;0.50;99.90;;;-1.37;74.96;101521.41;10415695;27;97354;-80
2022/01/18 06:57:24;;;;;;;6.40;1.90;;;0.50;99.90;;;-1.31;74.92;101520.31;10421895;27;97045;-80
2022/01/18 07:02:27;;;;;;;13.00;4.70;;;0.60;99.90;;;-1.07;74.68;101539.38;10418072;27;96946;-81
2022/01/18 07:07:30;;;;;;;13.40;4.20;;;0.70;99.90;;;-0.53;73.39;101542.44;10362518;28;96503;-80
2022/01/18 07:12:34;;;;;;;7.80;2.27;;;0.80;99.90;;;-0.14;71.18;101539.84;10401959;28;96621;-80
2022/01/18 07:17:38;;;;;;;8.50;1.77;;;1.00;99.90;;;0.10;70.39;101524.88;10393047;28;96553;-81
2022/01/18 07:22:42;;;;;;;9.13;2.53;;;1.20;99.90;;;0.33;69.68;101514.22;10431141;27;96694;-80
2022/01/18 07:27:46;;;;;;;12.00;1.93;;;1.40;99.90;;;0.26;69.33;101504.97;10397625;27;96573;-80
2022/01/18 07:32:49;;;;;;;7.20;1.87;;;1.50;99.90;;;0.09;70.39;101515.34;10354213;28;96550;-82
2022/01/18 07:37:52;;;;;;;6.10;2.37;;;1.60;99.90;;;-0.01;70.97;101513.13;10357394;27;96765;-81
2022/01/18 07:42:56;;;;;;;10.60;2.80;;;1.60;99.90;;;-0.04;71.10;101512.41;10421106;27;96740;-80
2022/01/18 07:47:59;;;;;;;5.80;1.63;;;1.70;99.90;;;0.10;71.08;101522.25;10425198;27;96857;-81
2022/01/18 07:53:03;;;;;;;8.90;1.90;;;1.80;99.90;;;0.34;70.52;101525.53;10429224;27;97151;-81
2022/01/18 07:58:06;;;;;;;9.17;2.10;;;1.90;99.90;;;0.72;68.94;101539.44;10384168;27;96669;-81
2022/01/18 08:03:10;;;;;;;4.87;1.40;;;2.00;99.90;;;1.11;67.57;101536.69;10435290;27;96559;-78
2022/01/18 08:08:13;;;;;;;8.27;1.90;;;2.20;99.90;;;1.30;66.76;101536.63;10427284;27;96453;-79
2022/01/18 08:13:16;;;;;;;6.40;2.05;;;2.30;99.90;;;1.51;65.71;101542.59;10346162;27;1328936;-78
2022/01/18 08:18:19;;;;;;;6.43;1.77;;;2.60;99.90;;;1.49;65.45;101557.53;10382934;27;96637;-85
2022/01/18 08:23:22;;;;;;;6.23;2.07;;;2.70;99.90;;;1.41;66.11;101573.63;10395422;27;98454;-79
2022/01/18 08:28:25;;;;;;;10.97;2.20;;;2.80;99.90;;;1.29;66.29;101577.69;10408425;27;96568;-79
2022/01/18 08:33:27;;;;;;;5.93;1.80;;;2.90;99.70;;;1.27;66.56;101589.19;10400749;28;96437;-80
2022/01/18 08:38:31;;;;;;;6.77;1.83;;;2.90;99.40;;;1.42;66.83;101587.56;10419819;27;96461;-79
2022/01/18 08:43:36;;;;;;;7.43;2.30;;;3.00;99.40;;;1.57;65.67;101584.22;10427404;27;96658;-79
2022/01/18 08:48:39;;;;;;;5.67;2.50;;;3.10;99.00;;;1.71;64.91;101588.75;10435223;27;96760;-79
2022/01/18 08:53:48;;;;;;;7.00;2.43;;;3.20;98.30;;;1.94;64.65;101600.69;10422256;27;97036;-79
2022/01/18 08:58:51;;;;;;;6.93;2.30;;;3.40;98.40;;;2.56;62.87;101601.78;10444221;27;96580;-77
2022/01/18 09:03:54;;;;;;;9.87;2.03;;;3.80;98.90;;;2.92;60.57;101618.19;10438493;27;96564;-77
2022/01/18 09:08:57;;;;;;;5.07;1.40;;;4.10;96.70;;;3.24;59.01;101628.69;10424205;27;96834;-78
2022/01/18 09:14:00;;;;;;;4.80;1.90;;;4.40;94.50;;;3.01;59.44;101634.38;10419725;27;96542;-77
2022/01/18 09:19:03;;;;;;;7.93;1.93;;;4.40;93.40;;;2.64;61.10;101634.59;10440401;27;96560;-77
2022/01/18 09:24:06;;;;;;;7.57;2.10;;;4.20;94.20;;;2.93;60.47;101627.75;10429301;27;96411;-77
2022/01/18 09:29:11;;;;;;;7.60;2.10;;;4.40;93.90;;;3.42;58.58;101629.44;10407475;27;96538;-77
2022/01/18 09:34:14;;;;;;;9.00;2.30;;;4.70;93.30;;;3.94;57.23;101639.56;10427562;27;96375;-77
2022/01/18 09:39:17;;;;;;;9.43;2.17;;;5.10;92.60;;;4.30;56.24;101640.00;10405594;27;98088;-78
2022/01/18 09:44:21;;;;;;;7.40;2.10;;;5.40;91.40;;;4.63;54.74;101643.34;10440797;27;98223;-78
2022/01/18 09:49:24;;;;;;;23.87;10.40;;;5.70;90.00;;;4.68;53.84;101626.31;10438340;27;96553;-78
2022/01/18 09:54:27;;;;;;;70.27;31.47;;;5.90;87.40;;;4.72;53.95;101616.41;10444131;27;96488;-79
2022/01/18 09:59:32;;;;;;;14.50;5.20;;;5.90;86.10;;;4.72;53.70;101626.94;10437192;27;96576;-78
2022/01/18 10:04:41;;;;;;;33.60;13.90;;;6.00;84.30;;;4.41;53.98;101628.84;10401317;28;96480;-78
2022/01/18 10:09:44;;;;;;;6.63;2.53;;;5.80;82.90;;;3.90;54.75;101617.88;10407494;27;96618;-77
2022/01/18 10:14:56;;;;;;;7.10;2.17;;;5.50;82.20;;;3.60;56.37;101627.53;10431698;27;96628;-77
2022/01/18 10:20:18;;;;;;;6.50;2.40;;;5.30;83.30;;;3.34;57.31;101632.47;10460806;27;96498;-79
2022/01/18 10:25:29;;;;;;;;;;;5.10;83.80;;;3.20;57.57;101627.16;10439523;27;96619;-79
2022/01/18 10:30:43;;;;;;;8.63;2.83;;;4.90;84.30;;;3.03;58.32;101629.88;10416608;27;96692;-78
2022/01/18 10:36:12;;;;;;;12.70;3.40;;;4.80;84.70;;;2.84;59.18;101617.75;10420311;27;97206;-78
2022/01/18 10:41:35;;;;;;;7.10;2.67;;;4.60;85.40;;;2.69;59.34;101608.91;10417671;27;96541;-78
2022/01/18 10:46:52;;;;;;;13.50;4.53;;;4.50;85.70;;;2.61;60.30;101618.16;10429392;27;96614;-77
2022/01/18 10:52:22;;;;;;;10.17;2.60;;;4.40;86.70;;;2.59;60.08;101630.53;10435375;27;96651;-77
2022/01/18 10:57:28;;;;;;;11.03;2.33;;;4.30;87.20;;;3.18;59.34;101634.31;10424023;27;96602;-78
2022/01/18 11:02:43;;;;;;;10.33;2.60;;;4.70;88.60;;;4.12;57.33;101638.47;10439732;27;96508;-79
2022/01/18 11:07:48;;;;;;;8.23;2.13;;;5.40;85.60;;;4.71;54.60;101626.09;10415704;28;96554;-79
2022/01/18 11:13:08;;;;;;;17.63;4.70;;;6.00;85.70;;;4.84;53.44;101636.72;10436527;27;96628;-78
2022/01/18 11:18:18;;;;;;;20.20;7.87;;;6.20;82.30;;;5.02;52.69;101630.28;10442275;27;96727;-78
2022/01/18 11:23:23;;;;;;;9.13;2.50;;;6.40;79.90;;;4.85;51.99;101617.34;10455244;27;99806;-78
2022/01/18 11:28:34;;;;;;;5.80;1.87;;;6.30;77.20;;;4.29;54.50;101640.94;10457368;27;96501;-78
2022/01/18 11:33:41;;;;;;;12.67;2.67;;;5.90;78.60;;;3.77;55.82;101614.25;10437554;27;97769;-79
2022/01/18 11:38:50;;;;;;;9.53;2.90;;;5.50;79.70;;;3.42;57.32;101632.06;10375761;28;96605;-78
2022/01/18 11:43:55;;;;;;;10.27;2.97;;;5.20;81.10;;;3.20;58.53;101635.06;10384399;27;96797;-78
2022/01/18 11:49:14;;;;;;;8.53;2.60;;;5.00;82.10;;;3.08;58.85;101633.09;10418020;27;96534;-78
2022/01/18 11:59:39;;;;;;;9.03;3.50;;;4.80;83.70;;;2.97;58.87;101645.97;10455525;27;96585;-77
2022/01/18 12:04:47;;;;;;;12.37;2.33;;;4.70;84.00;;;2.92;59.67;101652.31;10435774;27;97028;-78
2022/01/18 12:09:50;;;;;;;6.30;2.40;;;4.60;84.40;;;2.91;59.71;101655.88;10423387;27;96521;-79
2022/01/18 12:14:54;;;;;;;10.13;1.87;;;4.70;84.70;;;2.92;58.87;101648.84;10428885;27;96936;-80
2022/01/18 12:19:56;;;;;;;6.43;1.67;;;4.70;84.20;;;2.91;58.29;101641.91;10407381;28;98351;-80
2022/01/18 12:25:30;;;;;;;10.37;2.30;;;4.60;83.50;;;2.94;58.09;101636.50;10397617;27;96524;-77
2022/01/18 12:30:42;;;;;;;11.30;3.03;;;4.60;83.50;;;2.91;57.38;101639.28;10404534;27;96958;-79
2022/01/18 12:35:47;;;;;;;7.80;2.60;;;4.60;82.20;;;2.86;57.14;101631.63;10394722;28;96441;-78
2022/01/18 12:40:50;;;;;;;13.83;2.40;;;4.60;81.60;;;2.82;56.99;101638.00;10433908;27;96795;-78
2022/01/18 12:45:53;;;;;;;9.77;2.43;;;4.50;81.40;;;2.86;57.95;101652.66;10393728;27;96638;-79
2022/01/18 12:50:59;;;;;;;9.17;2.20;;;4.60;82.80;;;2.91;58.14;101647.16;10448623;27;98323;-81
2022/01/18 12:56:09;;;;;;;8.23;2.07;;;4.60;82.60;;;2.95;58.34;101646.91;10431114;27;96645;-79
2022/01/18 13:01:14;;;;;;;8.03;2.20;;;4.60;83.10;;;3.00;58.16;101651.03;10427859;27;96536;-80
2022/01/18 13:06:21;;;;;;;8.07;2.20;;;4.70;83.10;;;2.98;56.50;101643.25;10402376;28;96536;-81
2022/01/18 13:11:35;;;;;;;10.57;2.10;;;4.70;81.30;;;2.98;57.08;101642.41;10396988;27;96520;-81
2022/01/18 13:27:23;;;;;;;8.67;2.30;;;4.60;81.20;;;2.85;56.99;101650.94;10404513;27;96570;-77
2022/01/18 13:32:33;;;;;;;8.63;2.17;;;4.60;81.10;;;2.76;57.14;101651.47;10421523;27;96591;-79
2022/01/18 13:37:38;;;;;;;8.13;2.43;;;4.60;80.80;;;2.68;57.40;101666.75;10401971;28;96467;-79
2022/01/18 13:43:02;;;;;;;11.27;2.67;;;4.50;81.10;;;2.63;57.49;101663.53;10386708;27;96495;-82
2022/01/18 13:48:08;;;;;;;10.47;2.50;;;4.40;80.80;;;2.62;57.60;101672.31;10420796;27;96937;-80
2022/01/18 13:53:28;;;;;;;10.37;2.97;;;4.40;81.50;;;2.60;57.94;101672.41;10436112;27;96833;-79
2022/01/18 13:58:53;;;;;;;10.20;3.37;;;4.40;81.70;;;2.59;58.02;101677.75;10437884;27;96518;-81
2022/01/18 14:04:00;;;;;;;12.23;2.27;;;4.40;82.00;;;2.58;58.40;101676.03;10448148;27;98633;-80
2022/01/18 14:09:04;;;;;;;5.23;2.50;;;4.40;82.40;;;2.56;58.82;101668.25;10433533;27;96564;-78
2022/01/18 14:14:18;;;;;;;8.97;2.67;;;4.30;82.70;;;2.52;58.34;101671.09;10441214;27;97122;-77
2022/01/18 14:19:43;;;;;;;7.97;2.03;;;4.30;82.50;;;2.48;58.43;101664.34;10372101;28;96585;-77
2022/01/18 14:24:48;;;;;;;12.57;3.73;;;4.20;82.70;;;2.44;58.77;101679.38;10395027;28;96476;-77
2022/01/18 14:30:00;;;;;;;8.43;2.67;;;4.20;83.00;;;2.39;59.42;101673.53;10415913;27;96637;-78
2022/01/18 14:35:16;;;;;;;10.50;2.90;;;4.20;83.20;;;2.34;58.60;101670.28;10415758;27;96655;-78
2022/01/18 14:40:29;;;;;;;9.80;2.57;;;4.10;82.70;;;2.28;58.54;101644.38;10416053;27;96873;-79
2022/01/18 14:45:39;;;;;;;7.87;2.50;;;4.00;82.60;;;2.22;59.26;101657.81;10450369;27;96704;-78
2022/01/18 14:50:45;;;;;;;12.47;3.07;;;4.00;83.40;;;2.12;60.08;101641.72;10387601;27;96768;-79
2022/01/18 14:55:50;;;;;;;17.03;4.30;;;3.90;84.20;;;2.02;60.13;101656.19;10392590;27;96510;-79
2022/01/18 15:00:57;;;;;;;27.13;7.00;;;3.80;84.40;;;1.91;60.63;101664.59;10389656;28;96643;-79
2022/01/18 15:06:00;;;;;;;83.00;36.43;;;3.70;85.10;;;1.81;61.11;101674.72;10375324;27;96649;-78
2022/01/18 15:11:03;;;;;;;18.53;7.23;;;3.70;85.70;;;1.72;61.39;101679.53;10403086;27;96791;-78
2022/01/18 15:16:05;;;;;;;15.60;6.57;;;3.60;86.40;;;1.67;61.87;101682.38;10429861;27;96576;-79
2022/01/18 15:21:08;;;;;;;13.77;3.63;;;3.50;87.10;;;1.63;61.91;101675.63;10449773;27;96793;-77
2022/01/18 15:26:12;;;;;;;7.17;3.20;;;3.40;87.20;;;1.54;62.60;101682.13;10388787;28;96489;-79
2022/01/18 15:31:15;;;;;;;16.17;4.80;;;3.40;88.30;;;1.50;62.68;101691.06;10394306;28;96551;-79
2022/01/18 15:36:18;;;;;;;15.93;5.00;;;3.30;88.50;;;1.43;63.00;101700.13;10398663;28;96489;-78
2022/01/18 15:41:22;;;;;;;14.73;5.00;;;3.30;89.00;;;1.37;63.42;101695.19;10430739;27;96540;-79
2022/01/18 15:46:27;;;;;;;17.83;5.03;;;3.20;89.40;;;1.34;63.47;101708.44;10396803;28;96555;-78
2022/01/18 15:51:31;;;;;;;9.53;3.03;;;3.20;89.70;;;1.32;63.20;101718.16;10454735;27;96318;-78
2022/01/18 15:56:34;;;;;;;14.23;4.50;;;3.10;89.80;;;1.28;63.62;101706.94;10381718;28;96620;-77
2022/01/18 16:01:38;;;;;;;10.60;3.37;;;3.10;90.00;;;1.26;63.18;101721.91;10441204;27;97621;-78
2022/01/18 16:06:41;;;;;;;12.90;4.70;;;3.10;90.10;;;1.24;63.49;101725.47;10438836;27;97027;-77
2022/01/18 16:11:44;;;;;;;20.53;5.47;;;3.10;90.20;;;1.18;63.47;101731.84;10428583;27;96680;-76
2022/01/18 16:16:47;;;;;;;13.90;4.17;;;3.00;90.40;;;1.14;63.87;101734.66;10396893;28;97147;-76
2022/01/18 16:21:50;;;;;;;15.13;5.27;;;3.00;90.40;;;1.15;63.86;101749.50;10424062;27;96496;-76
2022/01/18 16:26:53;;;;;;;19.47;5.83;;;3.00;90.60;;;1.07;64.04;101757.66;10364223;27;96507;-77
2022/01/18 16:31:57;;;;;;;18.60;8.70;;;2.90;90.70;;;1.05;63.85;101754.28;10430533;27;96369;-76
2022/01/18 16:36:59;;;;;;;12.50;4.47;;;2.90;90.70;;;1.01;64.45;101747.47;10455686;27;96516;-76
2022/01/18 16:42:03;;;;;;;16.53;5.50;;;2.80;90.80;;;0.89;64.61;101759.34;10435238;27;96639;-77
2022/01/18 16:47:06;;;;;;;12.77;3.60;;;2.80;91.00;;;0.87;64.76;101769.03;10404568;27;96747;-78
2022/01/18 16:52:10;;;;;;;13.37;4.07;;;2.70;91.30;;;0.89;64.83;101779.44;10443979;27;98199;-78
2022/01/18 16:57:12;;;;;;;12.20;3.63;;;2.70;91.30;;;0.90;64.65;101781.13;10420378;27;98007;-78
2022/01/18 17:02:16;;;;;;;12.40;4.07;;;2.70;91.40;;;0.90;64.76;101773.28;10415893;27;96812;-78
2022/01/18 17:07:19;;;;;;;15.53;4.73;;;2.70;91.40;;;0.85;65.10;101794.44;10408656;28;96743;-78
2022/01/18 17:12:22;;;;;;;13.43;4.93;;;2.70;91.60;;;0.73;65.49;101797.56;10397122;27;97493;-78
2022/01/18 17:17:25;;;;;;;14.50;4.67;;;2.60;91.70;;;0.69;65.56;101799.47;10382277;28;96664;-79
2022/01/18 17:22:28;;;;;;;9.80;3.13;;;2.60;91.90;;;0.69;65.32;101807.31;10397205;27;96728;-79
2022/01/18 17:27:31;;;;;;;7.40;3.20;;;2.60;92.10;;;0.66;65.56;101812.69;10387937;28;96908;-78
2022/01/18 17:32:34;;;;;;;13.80;3.47;;;2.60;92.20;;;0.70;65.39;101803.78;10376257;27;96705;-78
2022/01/18 17:37:37;;;;;;;11.80;3.33;;;2.50;92.20;;;0.74;65.53;101804.50;10382138;27;96633;-74
2022/01/18 17:42:40;;;;;;;15.83;5.27;;;2.60;92.30;;;0.75;65.22;101829.75;10437880;27;97357;-75
2022/01/18 17:47:43;;;;;;;11.40;4.67;;;2.60;92.20;;;0.72;65.56;101835.97;10443280;27;96663;-75
2022/01/18 17:52:46;;;;;;;14.57;5.90;;;2.60;92.30;;;0.68;65.46;101825.69;10426458;27;96543;-75
2022/01/18 17:57:49;;;;;;;16.13;5.70;;;2.60;92.30;;;0.62;65.85;101812.88;10428632;27;96500;-75
2022/01/18 18:02:53;;;;;;;15.10;3.97;;;2.50;92.70;;;0.55;66.05;101814.06;10405478;27;96455;-75
2022/01/18 18:07:58;;;;;;;10.37;3.90;;;2.40;92.90;;;0.52;66.65;101822.88;10443994;27;97981;-75
2022/01/18 18:13:01;;;;;;;22.07;7.63;;;2.40;92.90;;;0.49;66.69;101830.84;10457508;27;96511;-75
2022/01/18 18:18:04;;;;;;;14.23;5.63;;;2.40;93.20;;;0.47;66.73;101838.75;10445736;27;96954;-75
2022/01/18 18:23:08;;;;;;;11.63;3.80;;;2.40;93.50;;;0.47;66.97;101837.91;10406621;27;96710;-75
2022/01/18 18:28:11;;;;;;;12.43;3.80;;;2.40;93.60;;;0.51;66.92;101829.00;10433651;27;96585;-76
2022/01/18 18:33:16;;;;;;;15.33;4.27;;;2.40;93.70;;;0.54;66.83;101828.91;10404341;27;96915;-76
2022/01/18 18:38:23;;;;;;;9.63;3.27;;;2.40;93.80;;;0.54;67.10;101841.97;10401200;27;97930;-76
2022/01/18 18:43:35;;;;;;;12.00;3.20;;;2.40;94.00;;;0.52;67.48;101834.19;10401086;28;97942;-76
2022/01/18 18:48:39;;;;;;;10.20;3.83;;;2.40;94.20;;;0.52;67.13;101841.19;10404741;27;96575;-76
2022/01/18 18:53:42;;;;;;;8.80;3.67;;;2.40;94.20;;;0.48;67.56;101842.19;10414421;27;97979;-76
2022/01/18 18:59:42;;;;;;;16.00;3.80;;;2.40;94.40;;;0.42;67.90;101834.63;10415361;27;96682;-76
2022/01/18 19:04:15;;;;;;;16.70;4.00;;;2.30;94.60;;;0.41;68.21;101812.00;10414424;28;96737;-76
2022/01/18 19:09:18;;;;;;;15.37;4.27;;;2.30;94.90;;;0.40;68.46;101815.53;10412368;27;98455;-77
2022/01/18 19:14:22;;;;;;;12.60;3.87;;;2.30;95.00;;;0.36;68.50;101816.56;10443578;27;96590;-78
2022/01/18 19:19:25;;;;;;;10.53;4.53;;;2.20;95.30;;;0.37;68.60;101826.13;10419658;27;97060;-77
2022/01/18 19:24:28;;;;;;;13.03;4.00;;;2.20;95.50;;;0.39;68.43;101827.75;10421958;27;96573;-77
2022/01/18 19:29:31;;;;;;;11.37;4.83;;;2.20;95.60;;;0.40;68.34;101842.53;10396566;28;96591;-76
2022/01/18 19:34:34;;;;;;;14.20;5.43;;;2.30;95.90;;;0.44;68.20;101838.03;10389923;28;96540;-76
2022/01/18 19:39:37;;;;;;;11.93;3.70;;;2.30;95.80;;;0.41;68.10;101840.75;10412616;27;96600;-78
2022/01/18 19:44:40;;;;;;;15.53;4.07;;;2.30;95.90;;;0.38;68.34;101843.53;10387485;27;96566;-77
2022/01/18 19:49:43;;;;;;;17.63;3.93;;;2.30;95.80;;;0.35;68.68;101861.94;10404801;27;96564;-76
2022/01/18 19:54:47;;;;;;;12.83;3.53;;;2.30;95.90;;;0.26;69.14;101882.31;10399702;27;96828;-76
2022/01/18 19:59:50;;;;;;;13.50;3.90;;;2.20;96.10;;;0.21;69.29;101878.19;10399898;28;96545;-78
2022/01/18 20:04:52;;;;;;;12.73;4.00;;;2.10;96.50;;;0.22;69.67;101874.66;10360516;28;98707;-78
2022/01/18 20:09:55;;;;;;;17.20;4.13;;;2.10;96.90;;;0.22;69.24;101874.66;10391977;28;96734;-78
2022/01/18 20:14:58;;;;;;;9.30;3.47;;;2.10;96.80;;;0.12;69.98;101874.19;10378882;27;96639;-78
2022/01/18 20:20:04;;;;;;;11.20;3.63;;;2.10;96.80;;;0.00;70.52;101877.28;10362344;28;97275;-79
2022/01/18 20:25:10;;;;;;;11.40;3.70;;;2.00;97.10;;;-0.09;70.81;101859.31;10428309;27;97619;-77
2022/01/18 20:30:24;;;;;;;14.60;4.43;;;1.90;97.50;;;-0.12;71.35;101843.75;10396278;27;96558;-77
2022/01/18 20:35:29;;;;;;;14.40;3.80;;;1.80;98.20;;;-0.06;71.24;101823.47;10360218;28;97931;-77
2022/01/18 20:40:35;;;;;;;13.53;3.80;;;1.80;98.70;;;0.01;70.62;101818.84;10436249;27;96523;-78
2022/01/18 20:45:39;;;;;;;12.20;3.40;;;1.80;98.50;;;0.08;70.39;101836.00;10364256;28;96655;-78
2022/01/18 20:50:46;;;;;;;14.23;4.30;;;1.90;98.70;;;0.14;70.00;101850.59;10414604;28;96795;-78
2022/01/18 20:55:53;;;;;;;12.27;3.90;;;2.00;98.20;;;0.23;68.47;101856.28;10402700;27;96625;-78
2022/01/18 21:00:55;;;;;;;12.23;4.27;;;2.00;97.40;;;0.37;67.12;101899.34;10414817;27;98402;-78
2022/01/18 21:05:59;;;;;;;14.07;4.17;;;2.20;96.20;;;0.43;67.18;101893.88;10439784;27;96629;-78
2022/01/18 21:11:05;;;;;;;11.13;4.63;;;2.20;96.50;;;0.36;68.84;101902.84;10418165;27;97162;-78
2022/01/18 21:16:08;;;;;;;11.00;3.50;;;2.20;97.00;;;0.34;68.93;101933.47;10412263;27;97835;-77
2022/01/18 21:21:11;;;;;;;11.60;4.53;;;2.20;97.50;;;0.32;69.45;101927.44;10444814;27;96502;-77
2022/01/18 21:26:14;;;;;;;15.23;5.13;;;2.20;97.60;;;0.31;69.10;101925.75;10397553;27;96973;-77
2022/01/18 21:31:16;;;;;;;10.30;3.93;;;2.20;97.70;;;0.36;68.49;101921.16;10415621;27;96740;-77
2022/01/18 21:36:19;;;;;;;9.73;3.90;;;2.20;97.40;;;0.34;68.62;101946.53;10431628;27;98123;-76
2022/01/18 21:41:22;;;;;;;10.03;4.40;;;2.20;97.40;;;0.24;69.18;101930.34;10402654;27;96770;-76
2022/01/18 21:46:26;;;;;;;16.07;4.30;;;2.10;97.80;;;0.14;69.53;101913.31;10450553;27;96672;-77
2022/01/18 21:51:31;;;;;;;15.73;4.63;;;2.00;97.90;;;0.08;70.05;101935.31;10415865;27;96973;-78
2022/01/18 21:56:36;;;;;;;14.47;4.00;;;2.00;98.00;;;-0.01;70.79;101927.81;10418406;27;96788;-77
2022/01/18 22:01:41;;;;;;;16.53;4.07;;;1.90;98.30;;;-0.07;69.98;101917.59;10409262;27;96538;-78
2022/01/18 22:06:44;;;;;;;12.63;3.70;;;1.80;98.20;;;-0.04;70.62;101925.31;10407275;28;96579;-78
2022/01/18 22:11:47;;;;;;;15.50;4.10;;;1.80;98.60;;;-0.07;70.35;101941.09;10358063;27;96720;-77
2022/01/18 22:16:50;;;;;;;16.50;4.30;;;1.80;98.60;;;-0.08;70.53;101942.03;10403675;27;96626;-77